Time;durP1;ratioP1;P1;durP2;ratioP2;P2;SDS_P1;SDS_P2;PMS_P1;PMS_P2;Temp;Humidity;BMP_temperature;BMP_pressure;BME280_temperature;BME280_humidity;BME280_pressure;Samples;Min_cycle;Max_cycle;Signal;HPM_P1;HPM_P2
2022/07/10 00:01:23;;;;;;;12.13;9.90;;;;;;;14.78;86.04;93313.78;5027898;28;20391;-45
2022/07/10 00:03:49;;;;;;;14.23;10.05;;;;;;;14.74;86.21;93319.78;5028094;28;20029;-46
2022/07/10 00:06:15;;;;;;;14.73;8.63;;;;;;;14.72;86.19;93308.50;5027696;28;20533;-47
2022/07/10 00:08:42;;;;;;;13.57;8.98;;;;;;;14.74;86.45;93316.25;5027960;28;20064;-45
2022/07/10 00:11:08;;;;;;;16.45;9.25;;;;;;;14.78;85.09;93311.00;5027331;28;20029;-46
2022/07/10 00:13:34;;;;;;;10.10;8.50;;;;;;;14.80;85.72;93319.50;5027728;28;20033;-44
2022/07/10 00:16:01;;;;;;;9.98;8.32;;;;;;;14.90;84.90;93312.66;5027420;28;20048;-47
2022/07/10 00:18:30;;;;;;;11.68;8.73;;;;;;;14.88;84.86;93312.50;5027926;28;20036;-44
2022/07/10 00:20:56;;;;;;;13.95;8.45;;;;;;;14.80;85.50;93311.16;5027519;28;20021;-46
2022/07/10 00:23:21;;;;;;;11.48;8.57;;;;;;;14.84;85.80;93303.13;5035733;28;20026;-43
2022/07/10 00:25:47;;;;;;;10.55;8.80;;;;;;;14.62;86.50;93301.44;5027715;28;20035;-44
2022/07/10 00:28:12;;;;;;;11.35;10.00;;;;;;;14.58;86.97;93290.75;5027453;28;20098;-43
2022/07/10 00:30:38;;;;;;;12.98;10.80;;;;;;;14.72;85.89;93283.50;5027685;28;20426;-43
2022/07/10 00:33:04;;;;;;;22.65;9.18;;;;;;;14.51;86.65;93277.69;5028015;28;20036;-43
2022/07/10 00:35:29;;;;;;;52.97;49.35;;;;;;;14.51;85.96;93261.03;5027409;28;20648;-41
2022/07/10 00:37:55;;;;;;;11.82;9.27;;;;;;;14.56;86.48;93290.59;5027307;28;20029;-41
2022/07/10 00:40:20;;;;;;;13.95;9.55;;;;;;;14.67;86.36;93284.50;5027129;28;20041;-43
2022/07/10 00:42:46;;;;;;;12.40;7.97;;;;;;;14.49;86.33;93268.50;5027437;28;20041;-43
2022/07/10 00:45:11;;;;;;;37.47;34.63;;;;;;;14.70;86.17;93291.69;5027475;28;20041;-42
2022/07/10 00:47:37;;;;;;;60.10;55.85;;;;;;;14.77;85.87;93288.03;5036973;28;20673;-43
2022/07/10 00:50:03;;;;;;;9.88;8.65;;;;;;;14.90;85.09;93286.91;5041761;28;20061;-42
2022/07/10 00:52:29;;;;;;;19.55;9.15;;;;;;;14.79;85.32;93282.63;5026780;28;20049;-44
2022/07/10 00:54:55;;;;;;;15.15;13.93;;;;;;;14.79;85.97;93284.69;5039224;28;20040;-42
2022/07/10 00:57:21;;;;;;;9.63;7.97;;;;;;;14.88;86.00;93287.47;5047175;28;20032;-42
2022/07/10 00:59:47;;;;;;;15.55;8.02;;;;;;;14.78;85.30;93263.75;5045751;28;20056;-43
2022/07/10 01:02:13;;;;;;;12.57;8.55;;;;;;;14.85;85.37;93285.88;5034128;28;20533;-43
2022/07/10 01:04:38;;;;;;;11.30;8.27;;;;;;;14.91;85.36;93286.34;5026977;28;20029;-45
2022/07/10 01:07:04;;;;;;;14.93;8.00;;;;;;;15.02;85.01;93277.44;5026995;28;20025;-46
2022/07/10 01:09:30;;;;;;;10.30;8.77;;;;;;;15.05;85.15;93283.88;5026951;28;20063;-47
2022/07/10 01:11:57;;;;;;;10.85;8.93;;;;;;;15.04;84.67;93282.41;5025649;28;20025;-45
2022/07/10 01:14:22;;;;;;;12.05;8.57;;;;;;;14.96;84.52;93254.75;5025951;28;20053;-43
2022/07/10 01:16:48;;;;;;;12.57;9.18;;;;;;;14.97;84.37;93256.19;5033565;28;20477;-44
2022/07/10 01:19:13;;;;;;;9.60;8.40;;;;;;;15.09;84.22;93262.66;5045424;28;20056;-44
2022/07/10 01:21:39;;;;;;;13.23;9.57;;;;;;;15.10;84.66;93274.50;5046512;28;20025;-45
2022/07/10 01:24:09;;;;;;;13.85;10.65;;;;;;;15.03;85.27;93273.31;5048042;28;20056;-46
2022/07/10 01:26:35;;;;;;;15.35;11.63;;;;;;;15.04;85.90;93268.50;5050342;28;20439;-45
2022/07/10 01:29:06;;;;;;;11.20;9.90;;;;;;;14.99;85.64;93272.28;5050442;28;20025;-44
2022/07/10 01:31:32;;;;;;;10.65;9.07;;;;;;;14.84;86.07;93267.72;5050267;28;20017;-48
2022/07/10 01:33:59;;;;;;;13.95;10.77;;;;;;;14.75;86.60;93265.66;5049981;28;20025;-45
2022/07/10 01:36:25;;;;;;;27.75;25.67;;;;;;;14.75;86.88;93256.59;5048741;28;20029;-46
2022/07/10 01:38:51;;;;;;;17.25;9.13;;;;;;;14.92;85.92;93262.75;5048774;28;20021;-45
2022/07/10 01:41:17;;;;;;;12.85;8.50;;;;;;;15.02;85.16;93257.97;5049871;28;20482;-47
2022/07/10 01:43:44;;;;;;;10.50;8.95;;;;;;;15.02;85.39;93257.25;5050171;28;20032;-47
2022/07/10 01:46:11;;;;;;;12.23;8.73;;;;;;;15.06;84.98;93261.06;5049737;28;20031;-45
2022/07/10 01:48:37;;;;;;;10.25;8.15;;;;;;;15.10;84.95;93257.81;5049804;28;20037;-50
2022/07/10 01:51:04;;;;;;;13.20;8.18;;;;;;;15.00;85.29;93259.88;5035994;28;20139;-48
2022/07/10 01:53:29;;;;;;;40.45;37.67;;;;;;;14.97;84.76;93272.13;5030214;28;20062;-47
2022/07/10 01:55:55;;;;;;;12.75;11.38;;;;;;;15.07;84.65;93267.34;5040793;28;20089;-45
2022/07/10 01:58:21;;;;;;;28.85;26.58;;;;;;;15.01;84.85;93267.63;5049357;28;20040;-44
2022/07/10 02:00:46;;;;;;;28.67;26.52;;;;;;;14.86;85.36;93264.34;5049618;28;20025;-43
2022/07/10 02:05:55;;;;;;;10.05;8.25;;;;;;;14.89;85.27;93263.94;5049109;28;20456;-44
2022/07/10 02:08:21;;;;;;;10.23;8.23;;;;;;;14.85;85.94;93266.44;5049658;28;20021;-43
2022/07/10 02:10:46;;;;;;;12.45;7.93;;;;;;;14.88;85.65;93265.25;5049802;28;20021;-43
2022/07/10 02:13:14;;;;;;;11.48;8.52;;;;;;;14.90;85.85;93256.34;5049650;28;20009;-42
2022/07/10 02:15:40;;;;;;;11.05;8.82;;;;;;;14.96;86.01;93263.09;5049380;28;20106;-43
2022/07/10 02:18:06;;;;;;;11.27;8.38;;;;;;;14.97;86.49;93261.75;5030616;28;20025;-45
2022/07/10 02:20:33;;;;;;;13.07;9.15;;;;;;;15.00;86.63;93265.44;5029287;28;20018;-42
2022/07/10 02:22:58;;;;;;;10.82;7.97;;;;;;;15.01;86.66;93252.97;5029622;28;20021;-42
2022/07/10 02:25:24;;;;;;;10.07;8.98;;;;;;;15.18;85.83;93264.72;5029552;28;20497;-42
2022/07/10 02:27:49;;;;;;;13.02;8.43;;;;;;;15.25;84.71;93252.00;5029622;28;20101;-43
2022/07/10 02:30:15;;;;;;;12.80;9.30;;;;;;;15.23;84.39;93245.53;5029206;28;20029;-45
2022/07/10 02:32:40;;;;;;;14.68;8.80;;;;;;;15.20;84.50;93255.81;5029217;28;20018;-44
2022/07/10 02:35:06;;;;;;;10.95;8.23;;;;;;;15.16;84.48;93256.22;5028798;28;20026;-43
2022/07/10 02:37:31;;;;;;;12.52;8.35;;;;;;;15.14;83.91;93258.84;5029374;28;20028;-44
2022/07/10 02:39:57;;;;;;;12.38;8.80;;;;;;;15.19;83.75;93257.84;5029327;28;20021;-43
2022/07/10 02:42:22;;;;;;;12.57;8.85;;;;;;;15.23;83.27;93260.19;5029234;28;20402;-44
2022/07/10 02:44:48;;;;;;;11.43;8.82;;;;;;;15.15;83.55;93265.91;5029361;28;20410;-44
2022/07/10 02:47:13;;;;;;;12.55;8.35;;;;;;;15.15;83.94;93254.78;5028974;28;20497;-45
2022/07/10 02:49:39;;;;;;;10.45;7.97;;;;;;;15.19;82.79;93243.22;5028949;28;20032;-44
2022/07/10 02:52:04;;;;;;;9.73;7.47;;;;;;;15.22;82.61;93269.88;5028679;28;20659;-44
2022/07/10 02:54:30;;;;;;;10.18;8.05;;;;;;;15.19;82.14;93266.19;5039499;28;20033;-45
2022/07/10 02:56:55;;;;;;;10.77;8.05;;;;;;;15.21;82.37;93262.81;5048669;28;20085;-44
2022/07/10 02:59:21;;;;;;;13.23;8.27;;;;;;;15.22;82.63;93263.56;5048963;28;20036;-44
2022/07/10 03:01:46;;;;;;;12.07;8.07;;;;;;;15.10;82.85;93268.94;5048513;28;20088;-45
2022/07/10 03:04:12;;;;;;;11.23;8.45;;;;;;;15.14;82.35;93264.44;5048763;28;20040;-44
2022/07/10 03:06:37;;;;;;;12.55;8.80;;;;;;;15.08;82.45;93261.19;5048624;28;20036;-46
2022/07/10 03:09:03;;;;;;;11.93;8.70;;;;;;;15.10;81.93;93258.56;5098582;27;20043;-41
2022/07/10 03:11:28;;;;;;;14.25;9.20;;;;;;;15.00;82.20;93268.94;5031413;28;20105;-41
2022/07/10 03:13:54;;;;;;;12.73;10.07;;;;;;;15.03;82.29;93269.81;5028384;28;20551;-41
2022/07/10 03:16:19;;;;;;;16.15;10.60;;;;;;;15.12;81.81;93267.06;5028652;28;20033;-40
2022/07/10 03:18:45;;;;;;;20.77;12.48;;;;;;;15.09;81.97;93268.22;5028407;28;20032;-39
2022/07/10 03:21:10;;;;;;;17.70;12.38;;;;;;;15.04;82.45;93271.28;5028672;28;20029;-46
2022/07/10 03:23:36;;;;;;;19.80;11.65;;;;;;;14.85;83.27;93265.69;5028650;28;20421;-43
2022/07/10 03:26:01;;;;;;;16.77;11.52;;;;;;;14.93;83.56;93260.72;5028178;28;20125;-44
2022/07/10 03:28:27;;;;;;;14.80;10.10;;;;;;;14.96;83.45;93265.88;5028282;28;20029;-43
2022/07/10 03:30:52;;;;;;;13.73;9.98;;;;;;;15.06;82.53;93263.09;5028566;28;20039;-45
2022/07/10 03:33:18;;;;;;;11.73;8.38;;;;;;;14.99;82.49;93259.13;5028281;28;20032;-44
2022/07/10 03:35:43;;;;;;;16.00;9.95;;;;;;;15.02;82.79;93269.09;5028495;28;20032;-47
2022/07/10 03:38:09;;;;;;;16.95;9.95;;;;;;;15.03;83.05;93267.75;5028446;28;20025;-48
2022/07/10 03:40:34;;;;;;;14.98;11.20;;;;;;;15.02;83.04;93269.09;5028052;28;20421;-47
2022/07/10 03:43:00;;;;;;;14.93;12.15;;;;;;;15.02;83.37;93257.97;5043248;28;20057;-46
2022/07/10 03:45:25;;;;;;;16.65;11.70;;;;;;;15.08;83.75;93257.69;5046981;28;20165;-43
2022/07/10 03:47:51;;;;;;;18.33;12.25;;;;;;;15.09;83.86;93259.88;5047143;28;20025;-44
2022/07/10 03:50:16;;;;;;;13.77;11.23;;;;;;;15.04;83.89;93260.91;5047213;28;20029;-43
2022/07/10 03:52:44;;;;;;;15.48;11.63;;;;;;;15.08;83.71;93257.69;5047785;28;20040;-43
2022/07/10 03:55:09;;;;;;;14.50;11.55;;;;;;;15.17;82.99;93257.72;5047841;28;20032;-43
2022/07/10 03:57:53;;;;;;;15.13;10.75;;;;;;;15.22;82.91;93264.31;5047966;28;20021;-43
2022/07/10 04:00:21;;;;;;;12.90;10.77;;;;;;;15.24;82.72;93260.94;5048036;28;20036;-45
2022/07/10 04:02:48;;;;;;;15.45;10.35;;;;;;;15.15;82.94;93238.09;5047647;28;20032;-44
2022/07/10 04:05:14;;;;;;;20.27;9.95;;;;;;;15.23;82.68;93249.06;5047907;28;20056;-43
2022/07/10 04:07:39;;;;;;;14.75;9.63;;;;;;;15.37;82.32;93266.81;5047654;28;20473;-42
2022/07/10 04:10:05;;;;;;;11.80;9.73;;;;;;;15.40;82.60;93267.69;5047743;28;20100;-42
2022/07/10 04:12:31;;;;;;;13.07;9.68;;;;;;;15.24;83.01;93264.44;5047816;28;20138;-42
2022/07/10 04:14:56;;;;;;;11.55;9.55;;;;;;;15.26;82.94;93267.38;5047522;28;20066;-43
2022/07/10 04:17:22;;;;;;;14.23;10.38;;;;;;;15.34;82.52;93258.88;5034915;28;20021;-42
2022/07/10 04:19:47;;;;;;;11.68;9.23;;;;;;;15.36;82.98;93256.25;5032453;28;20029;-43
2022/07/10 04:22:13;;;;;;;16.30;10.10;;;;;;;15.35;82.77;93254.78;5047213;28;20067;-44
2022/07/10 04:24:39;;;;;;;12.50;10.52;;;;;;;15.30;82.62;93239.13;5046879;28;20092;-43
2022/07/10 04:27:06;;;;;;;13.95;9.18;;;;;;;15.47;82.29;93256.44;5046579;28;20029;-43
2022/07/10 04:29:32;;;;;;;11.38;9.75;;;;;;;15.53;81.77;93258.91;5047583;28;20029;-43
2022/07/10 04:31:57;;;;;;;15.10;10.00;;;;;;;15.57;81.54;93259.94;5047257;28;20021;-43
2022/07/10 04:34:23;;;;;;;15.57;10.88;;;;;;;15.55;81.58;93254.22;5047151;28;20029;-44
2022/07/10 04:36:48;;;;;;;13.57;9.35;;;;;;;15.58;81.69;93257.91;5047610;28;20021;-45
2022/07/10 04:39:14;;;;;;;11.73;9.57;;;;;;;15.58;81.93;93260.69;5047166;28;20603;-45
2022/07/10 04:41:39;;;;;;;14.20;10.68;;;;;;;15.60;81.50;93258.03;5047158;28;20020;-45
2022/07/10 04:56:15;;;;;;;13.93;11.63;;;;;;;16.06;78.90;93264.16;5063222;28;20662;-42
2022/07/10 04:58:41;;;;;;;15.05;10.80;;;;;;;16.08;78.71;93266.34;5064023;28;20561;-44
2022/07/10 05:01:07;;;;;;;13.82;10.63;;;;;;;15.86;78.27;93246.00;5061196;28;20461;-46
2022/07/10 05:03:32;;;;;;;16.88;11.85;;;;;;;15.60;80.15;93253.22;5048365;28;20143;-43
2022/07/10 05:05:58;;;;;;;15.13;11.55;;;;;;;15.46;81.31;93251.47;5052649;28;20057;-45
2022/07/10 05:08:23;;;;;;;16.95;11.32;;;;;;;15.41;82.34;93258.00;5043719;28;20052;-44
2022/07/10 05:10:49;;;;;;;14.07;11.13;;;;;;;15.36;82.71;93261.81;5043628;28;20078;-42
2022/07/10 05:13:14;;;;;;;15.98;11.95;;;;;;;15.47;82.21;93258.47;5043953;28;20021;-42
2022/07/10 05:15:39;;;;;;;27.48;12.68;;;;;;;15.44;82.36;93260.38;5043569;28;20464;-44
2022/07/10 05:18:05;;;;;;;16.85;12.25;;;;;;;15.32;83.85;93255.94;5058128;28;20033;-42
2022/07/10 05:20:31;;;;;;;16.02;11.77;;;;;;;15.40;83.63;93257.28;5043380;28;20505;-44
2022/07/10 05:22:56;;;;;;;18.83;13.25;;;;;;;15.40;84.10;93256.56;5042213;28;20028;-43
2022/07/10 05:25:22;;;;;;;17.77;13.15;;;;;;;15.53;84.21;93247.78;5043308;28;20024;-46
2022/07/10 05:27:48;;;;;;;17.73;13.65;;;;;;;15.73;83.33;93252.03;5043679;28;20029;-44
2022/07/10 05:30:13;;;;;;;21.95;13.95;;;;;;;15.83;83.63;93247.19;5043304;28;20401;-44
2022/07/10 05:32:45;;;;;;;17.75;12.80;;;;;;;15.92;82.72;93254.78;5043635;28;20028;-43
2022/07/10 05:35:13;;;;;;;19.42;13.73;;;;;;;15.94;82.02;93236.16;5043473;28;20032;-43
2022/07/10 05:49:01;;;;;;;17.17;12.70;;;;;;;17.22;75.82;93248.41;5128358;27;20622;-41
2022/07/10 05:51:26;;;;;;;15.00;12.43;;;;;;;17.03;76.35;93254.84;5128304;27;20114;-42
2022/07/10 05:53:52;;;;;;;18.05;12.30;;;;;;;16.97;75.92;93257.25;5124004;27;20024;-43
2022/07/10 05:56:19;;;;;;;16.48;12.73;;;;;;;16.84;77.51;93260.53;5117262;28;20031;-43
2022/07/10 05:58:44;;;;;;;16.20;11.80;;;;;;;16.86;77.42;93259.94;5144769;27;20026;-41
2022/07/10 06:01:10;;;;;;;14.05;11.90;;;;;;;16.87;78.01;93255.84;5144403;27;20029;-42
2022/07/10 06:03:35;;;;;;;13.35;10.57;;;;;;;16.83;77.94;93253.50;5128089;27;20030;-43
2022/07/10 06:06:02;;;;;;;18.15;12.63;;;;;;;16.69;77.77;93249.75;5128148;27;20031;-42
2022/07/10 06:08:27;;;;;;;14.35;11.32;;;;;;;16.72;77.68;93254.13;5126875;28;20031;-41
2022/07/10 06:10:53;;;;;;;13.52;9.75;;;;;;;16.70;77.15;93253.28;5128065;27;20400;-43
2022/07/10 06:13:18;;;;;;;11.88;10.48;;;;;;;16.77;77.07;93255.13;5128239;27;20554;-43
2022/07/10 06:15:44;;;;;;;12.52;10.70;;;;;;;16.54;77.79;93256.44;5131307;27;20050;-42
2022/07/10 06:18:09;;;;;;;12.88;10.73;;;;;;;16.55;77.65;93257.88;5128923;27;20027;-43
2022/07/10 06:20:35;;;;;;;14.73;11.55;;;;;;;16.43;78.86;93256.28;5127150;27;20028;-45
2022/07/10 06:23:00;;;;;;;17.30;11.50;;;;;;;16.43;79.55;93259.06;5128124;27;20103;-43
2022/07/10 06:25:26;;;;;;;14.00;10.30;;;;;;;16.47;79.00;93262.88;5128228;27;20050;-43
2022/07/10 06:27:51;;;;;;;17.65;10.93;;;;;;;16.43;79.14;93245.88;5128024;27;20027;-43
2022/07/10 06:30:17;;;;;;;12.32;10.50;;;;;;;16.55;78.83;93257.88;5127921;27;20385;-44
2022/07/10 06:32:44;;;;;;;12.85;9.23;;;;;;;16.62;78.51;93259.03;5127904;27;20449;-41
2022/07/10 06:35:10;;;;;;;13.40;9.85;;;;;;;16.70;77.40;93254.00;5127554;27;20023;-43
2022/07/10 06:37:35;;;;;;;27.35;9.57;;;;;;;16.82;77.70;93254.84;5127315;27;20019;-45
2022/07/10 06:40:01;;;;;;;12.80;9.30;;;;;;;16.94;76.86;93257.69;5127806;27;20035;-42
2022/07/10 06:42:26;;;;;;;10.00;8.68;;;;;;;17.03;74.64;93259.69;5137722;27;20022;-40
2022/07/10 06:44:52;;;;;;;13.18;9.07;;;;;;;17.04;75.91;93255.59;5138779;27;20060;-40
2022/07/10 06:50:04;;;;;;;11.00;9.15;;;;;;;17.06;75.16;93258.53;5112952;28;20576;-42
2022/07/10 06:52:32;;;;;;;13.55;10.02;;;;;;;16.89;75.84;93247.59;5113006;28;20420;-41
2022/07/10 06:54:58;;;;;;;14.23;10.20;;;;;;;17.05;77.31;93246.63;5113498;28;20015;-41
2022/07/10 06:57:23;;;;;;;11.45;10.13;;;;;;;17.14;76.46;93253.47;5091600;27;20039;-41
2022/07/10 06:59:49;;;;;;;13.10;9.93;;;;;;;17.35;75.77;93247.91;5130607;27;20027;-42
2022/07/10 07:02:14;;;;;;;13.05;10.77;;;;;;;17.46;77.19;93238.84;5117135;27;20062;-43
2022/07/10 07:04:40;;;;;;;14.38;10.15;;;;;;;17.61;75.27;93238.47;5111343;28;20031;-40
2022/07/10 07:07:05;;;;;;;14.70;10.82;;;;;;;17.77;74.14;93227.63;5108602;28;20095;-44
2022/07/10 07:09:31;;;;;;;13.18;9.43;;;;;;;17.91;73.00;93232.03;5121805;27;20030;-43
2022/07/10 07:11:56;;;;;;;9.32;8.32;;;;;;;18.12;72.08;93232.00;5117423;27;20027;-43
2022/07/10 07:14:22;;;;;;;12.23;9.45;;;;;;;18.15;72.19;93230.03;5109814;28;20163;-42
2022/07/10 07:16:57;;;;;;;17.33;9.05;;;;;;;18.30;73.92;93231.66;5109347;28;20046;-41
2022/07/10 07:19:30;;;;;;;17.45;9.82;;;;;;;18.38;73.61;93230.09;5105815;27;20827;-41
2022/07/10 07:24:43;;;;;;;11.10;8.88;;;;;;;18.46;71.82;93236.19;5107093;28;20112;-42
2022/07/10 07:27:10;;;;;;;10.68;8.43;;;;;;;18.68;71.35;93225.66;5109572;28;20526;-41
2022/07/10 07:29:36;;;;;;;13.10;9.20;;;;;;;18.97;72.12;93216.88;5111193;27;20102;-42
2022/07/10 07:32:01;;;;;;;11.50;9.15;;;;;;;19.23;68.72;93227.53;5102072;28;20119;-40
2022/07/10 07:34:27;;;;;;;12.20;8.70;;;;;;;19.21;69.40;93233.00;5109497;28;20080;-42
2022/07/10 07:36:52;;;;;;;10.65;8.50;;;;;;;19.79;68.52;93229.38;5110708;27;20507;-41
2022/07/10 07:39:18;;;;;;;7.43;6.72;;;;;;;20.15;65.00;93231.41;5109044;28;20023;-41
2022/07/10 07:41:43;;;;;;;8.18;7.32;;;;;;;20.33;65.46;93232.44;5105276;28;20031;-41
2022/07/10 07:44:09;;;;;;;8.35;7.18;;;;;;;20.57;64.48;93236.56;5106772;28;20012;-41
2022/07/10 07:46:35;;;;;;;7.63;6.88;;;;;;;21.05;63.32;93232.78;5109146;28;20016;-41
2022/07/10 07:49:00;;;;;;;7.75;6.25;;;;;;;21.63;61.54;93229.41;5109270;28;20471;-44
2022/07/10 07:51:26;;;;;;;9.23;6.68;;;;;;;21.85;59.19;93219.31;5109690;27;20804;-43
2022/07/10 07:53:51;;;;;;;6.20;5.55;;;;;;;22.07;56.30;93223.16;5109286;27;20440;-42
2022/07/10 07:56:17;;;;;;;6.63;5.97;;;;;;;22.10;58.03;93224.72;5107273;28;20807;-43
2022/07/10 07:58:42;;;;;;;6.40;5.38;;;;;;;22.25;56.75;93228.94;5108901;28;20027;-42
2022/07/10 08:01:08;;;;;;;8.68;5.93;;;;;;;22.56;55.99;93220.56;5105804;28;20036;-43
2022/07/10 08:03:33;;;;;;;6.45;5.80;;;;;;;22.76;54.96;93220.78;5110719;28;20095;-42
2022/07/10 08:05:59;;;;;;;9.32;5.70;;;;;;;23.46;53.13;93226.72;5111068;28;20476;-43
2022/07/10 08:08:25;;;;;;;6.22;5.00;;;;;;;23.73;52.96;93217.31;5107757;28;20381;-44
2022/07/10 08:10:50;;;;;;;6.60;6.00;;;;;;;23.80;54.06;93216.19;5110591;28;20019;-44
2022/07/10 08:13:15;;;;;;;6.15;5.65;;;;;;;24.07;52.42;93219.47;5110702;28;20024;-40
2022/07/10 08:15:42;;;;;;;6.40;5.80;;;;;;;24.21;52.26;93227.78;5110860;28;20511;-43
2022/07/10 08:18:07;;;;;;;6.68;6.07;;;;;;;23.87;52.24;93227.06;5110578;28;20055;-41
2022/07/10 08:20:33;;;;;;;7.70;5.40;;;;;;;23.19;53.12;93207.22;5108002;28;20055;-40
2022/07/10 08:22:59;;;;;;;9.38;6.15;;;;;;;22.83;55.78;93225.31;5105312;28;20019;-40
2022/07/10 08:25:25;;;;;;;10.80;7.85;;;;;;;22.52;57.39;93209.84;5111602;28;20047;-41
2022/07/10 08:27:50;;;;;;;8.00;7.15;;;;;;;23.13;57.24;93227.41;5111728;28;20051;-41
2022/07/10 08:30:16;;;;;;;7.18;6.30;;;;;;;23.73;53.68;93209.59;5111750;28;20128;-41
2022/07/10 08:32:42;;;;;;;7.38;6.22;;;;;;;24.16;51.00;93208.50;5109106;28;20555;-41
2022/07/10 08:35:08;;;;;;;6.28;5.68;;;;;;;25.26;50.90;93206.34;5089862;28;20416;-43
2022/07/10 08:37:38;;;;;;;8.10;6.07;;;;;;;26.14;47.19;93211.56;5105312;28;20047;-43
2022/07/10 08:40:05;;;;;;;6.43;5.93;;;;;;;27.24;45.81;93205.03;5111442;28;20019;-42
2022/07/10 08:42:32;;;;;;;5.97;5.38;;;;;;;27.50;44.70;93209.34;5111357;28;20023;-43
2022/07/10 08:44:57;;;;;;;4.82;4.32;;;;;;;27.21;42.68;93220.50;5111526;28;20034;-42
2022/07/10 08:47:25;;;;;;;5.50;4.80;;;;;;;26.80;43.92;93224.28;5108145;28;20028;-43
2022/07/10 08:49:51;;;;;;;3.20;2.90;;;;;;;26.53;42.75;93217.03;5094144;28;20035;-44
2022/07/10 08:52:31;;;;;;;3.85;2.42;;;;;;;26.72;42.05;93219.06;5111475;28;20019;-40
2022/07/10 08:54:57;;;;;;;2.00;1.70;;;;;;;26.59;39.07;93217.25;5110749;28;20605;-41
2022/07/10 08:57:26;;;;;;;2.47;1.90;;;;;;;27.20;39.26;93213.41;5108629;28;20020;-39
2022/07/10 08:59:52;;;;;;;3.80;2.10;;;;;;;27.16;38.56;93230.31;5110817;28;20589;-41
2022/07/10 09:02:17;;;;;;;7.82;2.30;;;;;;;27.31;37.13;93227.19;5109808;28;20043;-40
2022/07/10 09:04:43;;;;;;;3.38;1.90;;;;;;;26.99;36.23;93220.59;5111400;28;20023;-42
2022/07/10 09:07:09;;;;;;;2.60;2.40;;;;;;;27.21;37.31;93218.41;5111236;28;20389;-46
2022/07/10 09:09:54;;;;;;;3.53;2.13;;;;;;;28.16;38.76;93221.72;5110959;28;20504;-43
2022/07/10 09:12:24;;;;;;;2.67;2.35;;;;;;;28.47;35.01;93214.69;5110966;28;20023;-40
2022/07/10 09:14:51;;;;;;;3.53;2.25;;;;;;;28.62;36.27;93215.75;5111197;28;20039;-45
2022/07/10 09:17:19;;;;;;;2.22;2.03;;;;;;;29.06;35.06;93216.75;5110718;28;20058;-44
2022/07/10 09:19:45;;;;;;;2.10;1.90;;;;;;;28.96;34.77;93219.38;5111184;28;20047;-41
2022/07/10 09:22:12;;;;;;;2.08;1.98;;;;;;;29.26;35.32;93211.50;5110454;28;20051;-42
2022/07/10 09:24:40;;;;;;;2.88;1.95;;;;;;;29.89;35.16;93219.19;5110699;28;20058;-41
2022/07/10 09:27:06;;;;;;;1.77;1.67;;;;;;;29.57;34.46;93210.00;5110317;28;20496;-42
2022/07/10 09:29:32;;;;;;;3.72;1.98;;;;;;;29.31;35.45;93210.22;5100674;28;20110;-41
2022/07/10 09:31:59;;;;;;;4.72;2.20;;;;;;;29.32;32.44;93220.19;5099197;28;20035;-43
2022/07/10 09:34:44;;;;;;;2.40;1.70;;;;;;;29.46;34.16;93211.94;5102770;28;20023;-42
2022/07/10 09:37:29;;;;;;;2.20;1.92;;;;;;;30.21;32.26;93216.94;5109712;28;20019;-43
2022/07/10 09:40:04;;;;;;;1.92;1.83;;;;;;;30.16;33.47;93209.72;5096206;28;20028;-46
2022/07/10 09:42:44;;;;;;;3.83;1.80;;;;;;;30.60;32.70;93206.91;5101432;28;20024;-41
2022/07/10 09:45:09;;;;;;;3.33;1.75;;;;;;;30.61;31.32;93209.06;5110543;28;20076;-43
2022/07/10 09:47:35;;;;;;;2.67;1.90;;;;;;;30.51;32.66;93208.91;5109904;28;20044;-43
2022/07/10 09:50:00;;;;;;;2.00;1.83;;;;;;;29.53;32.36;93209.94;5110147;28;20389;-42
2022/07/10 09:52:27;;;;;;;2.45;2.25;;;;;;;28.07;32.73;93222.22;5110323;28;20088;-43
2022/07/10 09:54:54;;;;;;;2.60;2.35;;;;;;;27.02;36.58;93220.00;5109252;28;20074;-40
2022/07/10 09:57:20;;;;;;;2.25;1.90;;;;;;;26.39;37.44;93222.28;5110315;28;20044;-42
2022/07/10 09:59:45;;;;;;;5.20;2.63;;;;;;;25.90;40.61;93219.22;5109233;28;20031;-39
2022/07/10 10:02:11;;;;;;;2.55;2.20;;;;;;;25.30;40.87;93210.06;5110374;28;20028;-47
2022/07/10 10:04:37;;;;;;;3.63;2.33;;;;;;;25.26;42.19;93212.00;5110330;28;20072;-44
2022/07/10 10:07:04;;;;;;;2.38;2.17;;;;;;;24.85;42.26;93212.63;5110447;28;20019;-42
2022/07/10 10:09:34;;;;;;;2.70;2.50;;;;;;;24.76;43.58;93200.31;5109185;28;20514;-38
2022/07/10 10:12:04;;;;;;;2.92;2.65;;;;;;;24.94;46.13;93200.28;5110331;28;20040;-40
2022/07/10 10:14:31;;;;;;;1.88;1.77;;;;;;;25.46;42.70;93198.63;5110184;28;20527;-40
2022/07/10 10:16:59;;;;;;;3.75;2.20;;;;;;;26.02;42.97;93196.97;5109061;28;20019;-43
2022/07/10 10:22:09;;;;;;;1.95;1.83;;;;;;;27.06;37.62;93191.06;5109345;28;20030;-41
2022/07/10 10:24:36;;;;;;;3.75;2.03;;;;;;;26.92;38.67;93197.03;5111981;28;20023;-41
2022/07/10 10:27:02;;;;;;;2.65;2.20;;;;;;;27.46;39.06;93188.66;5112789;28;20490;-41
2022/07/10 10:29:28;;;;;;;3.25;2.20;;;;;;;28.09;37.27;93191.75;5112573;28;20034;-43
2022/07/10 10:31:54;;;;;;;2.85;2.05;;;;;;;28.27;36.80;93180.13;5112913;28;20070;-42
2022/07/10 10:34:38;;;;;;;2.00;1.90;;;;;;;27.92;33.79;93178.50;5113354;28;20488;-40
2022/07/10 10:37:07;;;;;;;2.63;2.28;;;;;;;27.10;35.00;93181.94;5114172;28;20404;-42
2022/07/10 10:39:51;;;;;;;2.67;2.00;;;;;;;27.17;37.93;93172.22;5104366;28;20024;-42
2022/07/10 10:42:38;;;;;;;2.28;2.08;;;;;;;26.44;37.34;93178.56;5100805;27;20060;-41
2022/07/10 10:45:29;;;;;;;3.05;1.90;;;;;;;25.93;38.19;93181.84;5103537;28;20500;-40
2022/07/10 10:48:08;;;;;;;2.17;1.98;;;;;;;25.66;40.77;93164.66;5110170;28;20504;-40
2022/07/10 10:50:48;;;;;;;2.90;2.40;;;;;;;25.78;40.99;93182.03;5111474;28;20492;-40
2022/07/10 10:53:22;;;;;;;2.83;1.92;;;;;;;25.67;42.17;93178.16;5108474;28;20102;-41
2022/07/10 10:56:00;;;;;;;2.97;1.83;;;;;;;25.58;42.44;93182.81;5104522;28;20048;-41
2022/07/10 10:58:39;;;;;;;4.10;2.63;;;;;;;25.62;41.85;93175.84;5103469;28;20881;-41
2022/07/10 11:01:24;;;;;;;4.57;2.70;;;;;;;25.91;42.28;93164.09;5102231;28;20039;-41
2022/07/10 11:04:05;;;;;;;7.05;2.33;;;;;;;26.37;41.62;93164.88;5106750;28;20032;-41
2022/07/10 11:06:46;;;;;;;2.50;1.98;;;;;;;26.41;38.10;93165.00;5104150;28;20021;-42
2022/07/10 11:09:33;;;;;;;2.22;2.03;;;;;;;26.15;38.87;93164.91;5101976;28;20468;-42
2022/07/10 11:12:02;;;;;;;3.08;1.80;;;;;;;26.17;39.10;93159.28;5104929;28;20480;-41
2022/07/10 11:14:29;;;;;;;1.88;1.75;;;;;;;26.14;39.63;93160.63;5093041;28;20550;-42
2022/07/10 11:16:55;;;;;;;2.03;1.83;;;;;;;26.06;38.83;93158.22;5091772;28;20444;-45
2022/07/10 11:19:29;;;;;;;1.80;1.70;;;;;;;25.60;38.33;93159.53;5092977;28;20062;-40
2022/07/10 11:22:09;;;;;;;2.15;1.95;;;;;;;25.25;39.56;93162.53;5092656;28;20489;-42
2022/07/10 11:25:01;;;;;;;2.15;1.98;;;;;;;24.85;41.29;93164.63;5092637;28;20069;-43
2022/07/10 11:27:30;;;;;;;1.73;1.63;;;;;;;24.61;41.72;93164.44;5108192;28;20035;-41
2022/07/10 11:29:59;;;;;;;2.50;2.20;;;;;;;24.19;42.39;93162.09;5112766;28;20039;-44
2022/07/10 11:32:26;;;;;;;2.17;1.83;;;;;;;24.07;43.30;93167.97;5112800;28;20031;-47
2022/07/10 11:34:52;;;;;;;6.03;2.05;;;;;;;23.85;44.71;93164.22;5109293;28;20035;-38
2022/07/10 11:37:17;;;;;;;4.07;2.38;;;;;;;23.73;46.95;93175.03;5104837;28;20461;-42
2022/07/10 11:39:43;;;;;;;2.45;2.20;;;;;;;23.62;48.43;93173.16;5112174;28;20080;-42
2022/07/10 11:42:09;;;;;;;3.33;2.97;;;;;;;23.36;50.60;93178.41;5112888;28;20023;-39
2022/07/10 11:44:34;;;;;;;5.53;2.83;;;;;;;23.19;51.40;93179.06;5104437;28;20068;-42
2022/07/10 11:47:02;;;;;;;3.35;2.80;;;;;;;23.03;51.10;93190.34;5112073;28;20047;-40
2022/07/10 11:49:28;;;;;;;5.38;3.10;;;;;;;23.00;52.58;93168.38;5110060;28;20031;-40
2022/07/10 11:51:56;;;;;;;2.63;2.30;;;;;;;22.97;50.65;93176.00;5112212;28;20415;-41
2022/07/10 11:54:21;;;;;;;2.53;2.33;;;;;;;22.89;51.12;93177.75;5110063;28;20088;-40
2022/07/10 11:56:49;;;;;;;2.22;2.03;;;;;;;22.93;50.50;93183.56;5111879;27;20028;-39
2022/07/10 11:59:16;;;;;;;4.45;2.75;;;;;;;22.87;51.13;93174.84;5111012;27;20047;-41
2022/07/10 12:01:45;;;;;;;3.92;2.45;;;;;;;22.96;51.78;93183.00;5113059;27;20126;-38